Atyrau, Kazakhstan
Current Conditions -  °F | °C
As of 4:00 AM on Saturday 20 Dec 2014 (Local Time) from UATG Reporting Station
Haze Haze  
Wind Chill: -4°   Ceiling: 300
Heat Index:   Visibility: 3mi
Dew Point:   Wind: 11mph
Humidity: 100%   Direction: 160°SSE
Pressure: 30.15"   Gusts: NA
Location:  47.12°N, 51.88°E
Report Text: UATG 200000Z 16005MPS 5000 BR OVC003 01/01 Q1021 R14/19//65NOSIG RMK QBB110 QFE767/1023
Loading
Personal Weather Stations






























Interactive Weather Map New forecast layout! Learn more

10-Day Weather Forecast

Advertisements
Track Severe Weather on mobile